DXXX/LFW METAR and TAF weather

Enter ICAO airport designator
Station Type Date Time Source
DXXX METAR 2019/06/25 11:00 UTC NOAA

DXXX 251100Z VRB03KT 9999 SCT011 BKN030 27/23 Q1014 NOSIG


Station Type Date Time Source
DXXX Decoded METAR 2019/06/25 11:00 UTC NOAA

Lome, Togo (DXXX) 06-10N 001-15E 25M
Jun 25, 2019 - 07:00 AM EDT / 2019.06.25 1100 UTC
Wind: Variable at 3 MPH (3 KT):0
Visibility: greater than 7 mile(s):0
Sky conditions: mostly cloudy
Temperature: 80 F (27 C)
Dew Point: 73 F (23 C)
Relative Humidity: 78%
Pressure (altimeter): 29.94 in. Hg (1014 hPa)
ob: DXXX 251100Z VRB03KT 9999 SCT011 BKN030 27/23 Q1014 NOSIG
cycle: 11

Station Type Date Time Source
DXXX TAF 2019/06/25 12:27 UTC NOAA

TAF DXXX 251100Z 2512/2618 20010KT 9999 SCT010 PROB30
TEMPO 2512/2516 4000 RA BKN010
BECMG 2522/2524 26005KT
BECMG 2608/2610 20010KT

Example: see airport list